Flight Track Log - Related Links

Times and Time Zones

All times are in EDT time to prevent confusion due to time zone crossing. See the RPA4894 flight status page for this flight to view local times or setup timezone preferences in your user account.

Time Position Orientation Groundspeed Altitude Reporting Facility
EDT Latitude Longitude Course Direction KTS MPH feet Rate Location/Type
Wed 02:39:00 PM 44.1894 -73.2465 192° South  Level FlightAware Approximate
Wed 02:39:40 PM 44.4353 -73.2861 195° South 215 247 7,100  Level Boston Center
Wed 02:40:00 PM 44.0955 -73.2747 192° South  Level FlightAware Approximate
Wed 02:40:40 PM 44.3706 -73.3025 190° South 231 266 9,000  Level Boston Center
Wed 02:41:00 PM 44.0028 -73.3090 196° South  Level FlightAware Approximate
Wed 02:41:40 PM 44.3017 -73.3219 191° South 248 285 10,900  Level Boston Center
Wed 02:42:00 PM 43.9104 -73.3458 196° South  Level FlightAware Approximate
Wed 02:42:41 PM 44.2350 -73.3411 192° South 253 291 13,000  Level Boston Center
Wed 02:43:00 PM 43.8177 -73.3804 195° South  Level FlightAware Approximate
Wed 02:43:42 PM 44.1639 -73.3661 194° South 258 297 14,600  Level Boston Center
Wed 02:44:00 PM 43.7249 -73.4147 195° South  Level FlightAware Approximate
Wed 02:44:43 PM 44.0969 -73.3853 192° South 263 303 16,200  Level Boston Center
Wed 02:45:40 PM 44.0258 -73.4072 193° South 263 303 17,600 1,220 Climbing Boston Center
Wed 02:46:41 PM 43.9528 -73.4322 194° South 263 303 18,600 1,041 Climbing Boston Center
Wed 02:47:41 PM 43.8797 -73.4569 194° South 268 308 19,700 1,091 Climbing Boston Center
Wed 02:48:42 PM 43.8086 -73.4786 192° South 268 308 20,800 942 Climbing Boston Center
Wed 02:49:42 PM 43.7333 -73.5003 192° South 268 308 21,600 610 Climbing Boston Center
Wed 02:50:40 PM 43.6497 -73.5247 192° South 279 321 22,000 200 Climbing Boston Center
Wed 02:51:42 PM 43.5661 -73.5519 193° South 294 338 22,000  Level Boston Center
Wed 02:52:42 PM 43.4764 -73.5789 192° South 316 364 22,000  Level Boston Center
Wed 02:53:43 PM 43.3864 -73.6056 192° South 328 377 22,000  Level Boston Center
Wed 02:54:40 PM 43.2967 -73.6325 192° South 334 384 22,000 -153 Level Boston Center
Wed 02:55:41 PM 43.2047 -73.6592 192° South 334 384 21,700 -738 Descending Boston Center
Wed 02:56:42 PM 43.1083 -73.6914 194° South 344 396 20,500 -1,190 Descending Boston Center
Wed 02:57:42 PM 43.0122 -73.7236 194° South 356 410 19,300 -1,140 Descending Boston Center
Wed 02:58:43 PM 42.9158 -73.7528 192° South 356 410 18,200 -1,119 Descending Boston Center
Wed 02:59:40 PM 42.8303 -73.7819 194° South 356 410 17,100 -1,077 Descending Boston Center
Wed 03:00:40 PM 42.7339 -73.8139 194° South 356 410 16,100 -545 Descending Boston Center
Wed 03:01:41 PM 42.6439 -73.8542 198° South 356 410 16,000 -49 Descending Boston Center
Wed 03:02:42 PM 42.5433 -73.8969 197° South 344 396 16,000  Level Boston Center
Wed 03:03:40 PM 42.4636 -73.9317 198° South 344 396 16,000  Level Boston Center
Wed 03:04:41 PM 42.3650 -73.9744 198° South 344 396 16,000  Level Boston Center
Wed 03:05:41 PM 42.2833 -74.0089 197° South 344 396 16,000  Level Boston Center
Wed 03:06:42 PM 42.1867 -74.0539 199° South 344 396 16,000  Level Boston Center
Wed 03:07:42 PM 42.1069 -74.0911 199° South 339 390 16,000 -153 Level Boston Center
Wed 03:08:40 PM 42.0189 -74.1281 197° South 339 390 15,700 -857 Descending Boston Center
Wed 03:09:41 PM 41.9203 -74.1728 199° South 339 390 14,300 -1,289 Descending Boston Center
Wed 03:10:41 PM 41.8406 -74.2067 198° South 339 390 13,100 -1,289 Descending Boston Center
Wed 03:11:42 PM 41.7419 -74.2486 198° South 344 396 11,700 -1,289 Descending Boston Center
Wed 03:12:42 PM 41.6664 -74.2825 199° South 339 390 10,500 -1,289 Descending Boston Center
Wed 03:13:43 PM 41.5783 -74.3189 197° South 312 359 9,100 -1,261 Descending Boston Center
Wed 03:14:41 PM 41.5047 -74.3556 200° South 294 338 8,000 -603 Descending Boston Center
Wed 03:17:02 PM 41.3333 -74.4333 199° South 269 310 7,100 -269 Descending New York TRACON
Wed 03:18:02 PM 41.2500 -74.4667 197° South 281 323 7,100 -400 Level New York TRACON
Wed 03:19:02 PM 41.1667 -74.4667 180° South 289 333 6,300 -850 Descending New York TRACON
Wed 03:20:02 PM 41.1000 -74.4500 169° South 280 322 5,400 -600 Descending New York TRACON
Wed 03:21:02 PM 41.0333 -74.4167 159° South 265 305 5,100 -158 Descending New York TRACON
Wed 03:21:56 PM 41.0167 -74.3333 105° East 256 295 5,100 -421 Level New York TRACON
Wed 03:22:56 PM 41.0000 -74.2500 105° East 246 283 4,300 -500 Descending New York TRACON
Wed 03:23:56 PM 40.9667 -74.1667 118° Southeast 243 280 4,100 -400 Descending New York TRACON
Wed 03:24:56 PM 40.9167 -74.1167 143° Southeast 243 280 3,500 -500 Descending New York TRACON
Wed 03:25:56 PM 40.8667 -74.0833 153° Southeast 211 243 3,100 -524 Descending New York TRACON
Wed 03:27:02 PM 40.8000 -74.1000 191° South 203 234 2,400 -850 Descending New York TRACON
Wed 03:27:56 PM 40.7667 -74.1167 201° Southwest 178 205 1,400 -950 Descending New York TRACON
Wed 03:29:02 PM 40.7167 -74.1500 207° Southwest 140 161 500 -818 Descending New York TRACON

Login

Don't have an account? Register now (free) for customized features, flight alerts, and more!